Aviation Digital Data Service (ADDS)

Output produced by METARs form (0810 UTC 24 May 2018)
found at http://www.aviationweather.gov/adds/metars/
 
ZMUB 240800Z 29007MPS 260V330 9999 FEW033 27/M06 Q0997 NOSIG RMK QFE642.8 11 MOP
TAF ZMUB 240440Z 2406/2512 29007MPS 9999 FEW030CB SCT033 TX27/2407Z TN08/2422Z 
     BECMG 2410/2412 VRB02MPS 
     BECMG 2422/2501 15008MPS FEW030CB BKN033 
     TEMPO 2506/2512 VRB09G14MPS -SHRA SCT027CB BKN030 
     BECMG 2508/2510 30008MPS